Hankinson, North Dakota
Current Conditions -  °F | °C
As of 12:55 AM on Sunday 26 Oct 2014 (Local Time) from KBWP Reporting Station
Clear Clear  
Wind Chill: 32°   Ceiling: Unl
Heat Index: 36°   Visibility: 10mi
Dew Point: 23°   Wind: 5mph
Humidity: 60%   Direction: 150°SSE
Pressure: 30.01"   Gusts: NA
Location:  46.07°N, 96.9°W
Report Text: KBWP 260555Z AUTO 15004KT 10SM CLR 02/M05 A3001 RMK AO1
Loading
Personal Weather Stations






























Interactive Weather Map
Tropical Storm Tracking
New forecast layout! Learn more

10-Day Weather Forecast

Advertisements
Track Severe Weather on mobile